Time;durP1;ratioP1;P1;durP2;ratioP2;P2;SDS_P1;SDS_P2;PMS_P1;PMS_P2;Temp;Humidity;BMP_temperature;BMP_pressure;BME280_temperature;BME280_humidity;BME280_pressure;Samples;Min_cycle;Max_cycle;Signal;HPM_P1;HPM_P2
2023/07/06 00:01:06;;;;;;;2.28;1.60;;;16.50;99.90;;;;;;5072454;28;20205;-63
2023/07/06 00:03:33;;;;;;;5.43;1.80;;;16.50;99.90;;;;;;5072465;28;20211;-63
2023/07/06 00:06:00;;;;;;;3.38;1.80;;;16.60;99.90;;;;;;5072404;28;20252;-63
2023/07/06 00:08:29;;;;;;;3.55;1.80;;;16.60;99.90;;;;;;5072458;28;20243;-62
2023/07/06 00:10:56;;;;;;;5.82;2.00;;;16.60;99.90;;;;;;5072146;28;20221;-64
2023/07/06 00:13:23;;;;;;;2.15;1.70;;;16.60;99.90;;;;;;5072511;28;20205;-63
2023/07/06 00:15:51;;;;;;;5.63;2.00;;;16.60;99.90;;;;;;5071751;28;20204;-63
2023/07/06 00:18:20;;;;;;;3.92;1.90;;;16.60;99.90;;;;;;5072584;28;20648;-63
2023/07/06 00:20:49;;;;;;;3.50;1.88;;;16.70;99.90;;;;;;5071856;28;20246;-64
2023/07/06 00:23:16;;;;;;;4.35;1.80;;;16.70;99.90;;;;;;5072179;28;20325;-64
2023/07/06 00:25:45;;;;;;;2.28;1.60;;;16.70;99.90;;;;;;5071859;28;20245;-64
2023/07/06 00:28:12;;;;;;;7.72;1.90;;;16.70;99.90;;;;;;5071855;28;20212;-64
2023/07/06 00:30:52;;;;;;;3.80;1.80;;;16.60;99.90;;;;;;5071508;28;20221;-63
2023/07/06 00:33:21;;;;;;;4.22;2.13;;;16.60;99.90;;;;;;5071844;28;20622;-62
2023/07/06 00:35:48;;;;;;;4.60;1.70;;;16.50;99.90;;;;;;5071555;28;20201;-63
2023/07/06 00:38:17;;;;;;;2.67;1.73;;;16.50;99.90;;;;;;5071664;28;20208;-63
2023/07/06 00:40:48;;;;;;;2.65;1.85;;;16.40;99.90;;;;;;5071553;28;20250;-62
2023/07/06 00:43:18;;;;;;;2.55;1.90;;;16.20;99.90;;;;;;5071476;28;20209;-63
2023/07/06 00:45:46;;;;;;;3.42;1.65;;;16.20;99.90;;;;;;5071475;28;20266;-63
2023/07/06 00:48:20;;;;;;;3.78;1.98;;;16.20;99.90;;;;;;5071662;28;20263;-63
2023/07/06 00:50:52;;;;;;;4.55;1.95;;;16.20;99.90;;;;;;5071354;28;20228;-63
2023/07/06 00:53:20;;;;;;;2.20;1.70;;;16.20;99.90;;;;;;5071613;28;20209;-63
2023/07/06 00:55:48;;;;;;;3.42;1.90;;;16.20;99.90;;;;;;5071095;28;20209;-63
2023/07/06 00:58:19;;;;;;;2.00;1.80;;;16.20;99.90;;;;;;5071633;28;20205;-63
2023/07/06 01:00:47;;;;;;;5.00;1.92;;;16.10;99.90;;;;;;5071503;28;20229;-64
2023/07/06 01:03:19;;;;;;;6.38;2.08;;;16.10;99.90;;;;;;5071252;28;20201;-63
2023/07/06 01:05:47;;;;;;;2.78;1.92;;;16.10;99.90;;;;;;5071172;28;20231;-62
2023/07/06 01:08:19;;;;;;;3.33;1.83;;;16.00;99.90;;;;;;5071676;28;20208;-64
2023/07/06 01:10:50;;;;;;;3.53;1.83;;;16.00;99.90;;;;;;5071223;28;20353;-62
2023/07/06 01:13:16;;;;;;;3.53;2.00;;;15.90;99.90;;;;;;5071876;28;20629;-63
2023/07/06 01:15:49;;;;;;;5.10;2.05;;;15.90;99.90;;;;;;5071526;28;20216;-63
2023/07/06 01:18:23;;;;;;;3.30;2.05;;;15.90;99.90;;;;;;5070150;28;20438;-63
2023/07/06 01:20:57;;;;;;;4.97;2.17;;;15.90;99.90;;;;;;5111382;22;20224;-54
2023/07/06 01:24:06;;;;;;;2.20;1.80;;;16.00;99.90;;;;;;5092007;28;20207;-55
2023/07/06 01:26:57;;;;;;;4.05;2.00;;;16.00;99.90;;;;;;5091207;28;20277;-54
2023/07/06 01:29:49;;;;;;;5.73;1.83;;;16.00;99.90;;;;;;5091934;28;20286;-54
2023/07/06 01:32:22;;;;;;;3.15;1.88;;;16.10;99.90;;;;;;5091954;28;20228;-54
2023/07/06 01:34:54;;;;;;;3.28;1.98;;;16.10;99.90;;;;;;5091630;28;20295;-58
2023/07/06 01:37:26;;;;;;;4.80;2.00;;;16.10;99.90;;;;;;5092184;28;20257;-55
2023/07/06 01:39:53;;;;;;;4.68;1.90;;;16.10;99.90;;;;;;5092251;28;20282;-54
2023/07/06 01:42:27;;;;;;;3.30;1.77;;;16.00;99.90;;;;;;5091587;28;20200;-55
2023/07/06 01:44:56;;;;;;;2.78;1.90;;;15.90;99.90;;;;;;5091559;28;20208;-55
2023/07/06 01:47:28;;;;;;;3.22;1.98;;;15.90;99.90;;;;;;5091360;28;20208;-57
2023/07/06 01:49:56;;;;;;;4.15;1.80;;;15.80;99.90;;;;;;5092155;28;20314;-61
2023/07/06 01:52:33;;;;;;;6.00;2.10;;;15.80;99.90;;;;;;5091373;28;20596;-55
2023/07/06 01:55:09;;;;;;;4.50;1.97;;;15.70;99.90;;;;;;5091572;28;20249;-55
2023/07/06 01:57:42;;;;;;;2.15;1.80;;;15.60;99.90;;;;;;5091251;28;20203;-57
2023/07/06 02:00:14;;;;;;;3.05;1.65;;;15.60;99.90;;;;;;5091498;28;20231;-55
2023/07/06 02:02:44;;;;;;;2.50;1.95;;;15.60;99.90;;;;;;5091435;28;20610;-55
2023/07/06 02:05:13;;;;;;;2.30;2.10;;;15.50;99.90;;;;;;5091365;28;20652;-55
2023/07/06 02:07:42;;;;;;;4.73;1.90;;;15.50;99.90;;;;;;5091039;28;20632;-56
2023/07/06 02:10:13;;;;;;;3.10;2.00;;;15.40;99.90;;;;;;5091085;28;20735;-55
2023/07/06 02:12:40;;;;;;;2.00;1.60;;;15.40;99.90;;;;;;5091646;28;20603;-57
2023/07/06 02:15:07;;;;;;;4.20;2.03;;;15.30;99.90;;;;;;5091025;28;20220;-56
2023/07/06 02:17:35;;;;;;;3.20;2.17;;;15.20;99.90;;;;;;5091169;28;20208;-56
2023/07/06 02:20:04;;;;;;;4.07;1.97;;;15.10;99.90;;;;;;5091213;28;20274;-54
2023/07/06 02:22:32;;;;;;;3.60;1.93;;;15.10;99.90;;;;;;5091238;28;20253;-55
2023/07/06 02:24:59;;;;;;;3.57;2.03;;;15.00;99.90;;;;;;5091471;28;20204;-55
2023/07/06 02:27:26;;;;;;;5.70;2.00;;;15.00;99.90;;;;;;5090890;28;20212;-55
2023/07/06 02:29:52;;;;;;;4.57;2.13;;;15.00;99.90;;;;;;5090977;28;20223;-56
2023/07/06 02:32:19;;;;;;;3.43;1.80;;;14.90;99.90;;;;;;5091112;28;20224;-56
2023/07/06 02:34:46;;;;;;;2.90;1.97;;;14.90;99.90;;;;;;5091340;28;20219;-54
2023/07/06 02:37:14;;;;;;;3.33;2.03;;;14.90;99.90;;;;;;5091556;28;20204;-59
2023/07/06 02:39:41;;;;;;;3.20;2.20;;;14.80;99.90;;;;;;5094592;28;20228;-58
2023/07/06 02:42:08;;;;;;;3.70;2.10;;;14.80;99.90;;;;;;5094463;28;20657;-55
2023/07/06 02:44:35;;;;;;;2.57;2.07;;;14.70;99.90;;;;;;5094791;28;20291;-57
2023/07/06 02:47:01;;;;;;;3.73;2.10;;;14.70;99.90;;;;;;5094372;28;20337;-55
2023/07/06 02:49:28;;;;;;;3.20;2.00;;;14.60;99.90;;;;;;5094594;28;20216;-55
2023/07/06 02:51:55;;;;;;;4.40;2.30;;;14.60;99.90;;;;;;5094034;28;20231;-57
2023/07/06 02:54:23;;;;;;;5.47;2.30;;;14.50;99.90;;;;;;5094298;28;20671;-54
2023/07/06 02:56:50;;;;;;;3.37;2.10;;;14.50;99.90;;;;;;5093996;28;20230;-54
2023/07/06 02:59:16;;;;;;;2.83;2.20;;;14.50;99.90;;;;;;5094662;28;20235;-55
2023/07/06 03:01:43;;;;;;;6.63;2.10;;;14.50;99.90;;;;;;5094224;28;20659;-57
2023/07/06 03:04:10;;;;;;;4.00;2.07;;;14.40;99.90;;;;;;5094661;28;20580;-54
2023/07/06 03:06:38;;;;;;;3.07;2.03;;;14.30;99.90;;;;;;5094004;28;20236;-53
2023/07/06 03:09:05;;;;;;;3.10;2.30;;;14.30;99.90;;;;;;5094549;28;20212;-54
2023/07/06 03:11:33;;;;;;;5.17;2.27;;;14.20;99.90;;;;;;5094205;28;20208;-55
2023/07/06 03:14:02;;;;;;;3.53;2.37;;;14.20;99.90;;;;;;5094006;28;20212;-54
2023/07/06 03:16:29;;;;;;;3.83;2.20;;;14.20;99.90;;;;;;5093902;28;20204;-55
2023/07/06 03:18:55;;;;;;;3.80;2.17;;;14.10;99.90;;;;;;5093847;28;20225;-57
2023/07/06 03:21:22;;;;;;;3.23;2.20;;;14.20;99.90;;;;;;5093890;28;20204;-54
2023/07/06 03:23:50;;;;;;;2.80;2.07;;;14.10;99.90;;;;;;5093704;28;20632;-54
2023/07/06 03:26:17;;;;;;;3.00;2.00;;;14.00;99.90;;;;;;5093822;28;20216;-56
2023/07/06 03:28:45;;;;;;;3.03;2.10;;;13.90;99.90;;;;;;5093903;28;20204;-59
2023/07/06 03:31:14;;;;;;;3.53;2.57;;;13.80;99.90;;;;;;5093777;28;20228;-53
2023/07/06 03:33:41;;;;;;;3.53;2.03;;;13.70;99.90;;;;;;5093489;28;20224;-55
2023/07/06 03:36:08;;;;;;;4.27;2.00;;;13.60;99.90;;;;;;5093078;28;20204;-56
2023/07/06 03:38:35;;;;;;;3.13;2.10;;;13.60;99.90;;;;;;5093485;28;20204;-54
2023/07/06 03:41:03;;;;;;;3.23;2.20;;;13.60;99.90;;;;;;5093067;28;20695;-55
2023/07/06 03:43:31;;;;;;;3.83;2.53;;;13.60;99.90;;;;;;5093404;28;20292;-55
2023/07/06 03:45:59;;;;;;;4.73;2.47;;;13.70;99.90;;;;;;5092931;28;20216;-54
2023/07/06 03:48:26;;;;;;;3.00;2.13;;;13.70;99.90;;;;;;5092798;28;20241;-55
2023/07/06 03:50:53;;;;;;;5.73;2.30;;;13.60;99.90;;;;;;5093051;28;20224;-54
2023/07/06 03:53:21;;;;;;;4.50;2.03;;;13.70;99.90;;;;;;5092964;28;20607;-57
2023/07/06 03:55:53;;;;;;;5.40;2.20;;;13.70;99.90;;;;;;5093024;28;20258;-56
2023/07/06 03:58:21;;;;;;;3.10;2.40;;;13.60;99.90;;;;;;5093180;28;20659;-55
2023/07/06 04:00:48;;;;;;;3.40;2.07;;;13.70;99.90;;;;;;5092970;28;20227;-55
2023/07/06 04:03:16;;;;;;;3.03;2.20;;;13.70;99.90;;;;;;5092998;28;20698;-56
2023/07/06 04:05:47;;;;;;;3.07;1.87;;;13.70;99.90;;;;;;5093279;28;20295;-56
2023/07/06 04:08:17;;;;;;;4.20;2.10;;;13.80;99.90;;;;;;5092990;28;20215;-55
2023/07/06 04:10:44;;;;;;;3.20;2.23;;;13.90;99.90;;;;;;5092690;28;20575;-55
2023/07/06 04:13:13;;;;;;;3.93;2.30;;;14.00;99.90;;;;;;5092832;28;20228;-58
2023/07/06 04:15:42;;;;;;;3.07;2.30;;;14.00;99.90;;;;;;5092913;28;20204;-56
2023/07/06 04:18:09;;;;;;;2.93;2.00;;;14.10;99.90;;;;;;5092867;28;20277;-58
2023/07/06 04:20:38;;;;;;;6.20;2.53;;;14.10;99.90;;;;;;5092482;28;20244;-54
2023/07/06 04:23:05;;;;;;;3.80;2.30;;;14.10;99.90;;;;;;5092798;28;20201;-55
2023/07/06 04:25:35;;;;;;;3.20;2.40;;;14.10;99.90;;;;;;5092430;28;20199;-55
2023/07/06 04:28:05;;;;;;;4.10;1.90;;;14.20;99.90;;;;;;5091932;28;20283;-55
2023/07/06 04:30:33;;;;;;;3.53;2.20;;;14.30;99.90;;;;;;5092801;28;20228;-56
2023/07/06 04:33:00;;;;;;;2.60;1.93;;;14.40;99.90;;;;;;5092326;28;20228;-56
2023/07/06 04:35:27;;;;;;;3.10;2.07;;;14.40;99.90;;;;;;5092571;28;20303;-57
2023/07/06 04:37:55;;;;;;;5.60;2.30;;;14.50;99.90;;;;;;5092296;28;20212;-55
2023/07/06 04:40:26;;;;;;;3.50;2.10;;;14.50;99.90;;;;;;5091994;28;20220;-55
2023/07/06 04:42:53;;;;;;;5.13;2.53;;;14.60;99.90;;;;;;5092014;28;20629;-56
2023/07/06 04:45:22;;;;;;;2.23;2.00;;;14.70;99.90;;;;;;5092596;28;20210;-55
2023/07/06 04:47:51;;;;;;;3.33;2.40;;;14.80;99.90;;;;;;5091963;28;20265;-55
2023/07/06 04:50:22;;;;;;;6.10;2.27;;;15.00;99.90;;;;;;5092060;28;20230;-59
2023/07/06 04:52:51;;;;;;;4.63;2.60;;;15.20;99.90;;;;;;5091962;28;20220;-55
2023/07/06 04:55:22;;;;;;;3.57;2.17;;;15.50;99.90;;;;;;5092017;28;20204;-55
2023/07/06 04:57:50;;;;;;;2.97;2.20;;;15.90;99.90;;;;;;5091830;28;20251;-54
2023/07/06 05:00:24;;;;;;;2.78;1.95;;;16.60;99.90;;;;;;5090954;28;20320;-56
2023/07/06 05:02:51;;;;;;;4.85;2.10;;;17.90;99.90;;;;;;5091711;28;20287;-54
2023/07/06 05:05:20;;;;;;;3.05;2.20;;;19.50;99.90;;;;;;5091577;28;20200;-55
2023/07/06 05:07:47;;;;;;;2.17;1.75;;;21.10;99.90;;;;;;5091374;28;20295;-56
2023/07/06 05:10:15;;;;;;;3.58;2.05;;;22.50;99.90;;;;;;5091688;28;20220;-55
2023/07/06 05:12:44;;;;;;;3.30;1.98;;;23.40;98.80;;;;;;5091847;28;20319;-56
2023/07/06 05:15:11;;;;;;;6.90;3.88;;;24.20;96.20;;;;;;5091742;28;20226;-57
2023/07/06 05:17:39;;;;;;;2.92;2.00;;;25.20;94.10;;;;;;5091293;28;20204;-55
2023/07/06 05:20:07;;;;;;;4.78;1.77;;;26.20;91.40;;;;;;5091153;28;20566;-55
2023/07/06 05:22:38;;;;;;;5.85;1.92;;;27.10;88.90;;;;;;5091382;28;20682;-55
2023/07/06 05:25:05;;;;;;;3.35;2.20;;;28.10;83.00;;;;;;5091639;28;20215;-55
2023/07/06 05:27:32;;;;;;;6.45;2.83;;;28.90;77.50;;;;;;5091496;28;20211;-55
2023/07/06 05:30:00;;;;;;;3.58;1.88;;;29.20;74.10;;;;;;5091526;28;20228;-57
2023/07/06 05:32:27;;;;;;;2.10;1.90;;;29.50;73.40;;;;;;5091361;28;20298;-58
2023/07/06 05:34:54;;;;;;;4.00;2.17;;;30.20;70.40;;;;;;5089976;28;20208;-57
2023/07/06 05:37:21;;;;;;;4.50;2.10;;;31.00;68.10;;;;;;5089991;28;20212;-56
2023/07/06 05:39:48;;;;;;;4.82;2.28;;;31.30;64.60;;;;;;5091613;28;20315;-59
2023/07/06 05:42:15;;;;;;;3.72;2.40;;;30.70;65.20;;;;;;5091290;28;20208;-58
2023/07/06 05:44:42;;;;;;;4.88;2.30;;;30.40;65.20;;;;;;5091403;28;20298;-56
2023/07/06 05:47:10;;;;;;;3.63;2.05;;;30.80;64.60;;;;;;5090660;28;20676;-56
2023/07/06 05:49:36;;;;;;;5.30;2.10;;;31.40;61.80;;;;;;5091004;28;20715;-56
2023/07/06 05:52:04;;;;;;;3.65;2.25;;;31.80;60.60;;;;;;5091050;28;20636;-57
2023/07/06 05:54:32;;;;;;;5.13;2.47;;;32.30;60.10;;;;;;5091090;28;20231;-57
2023/07/06 05:57:02;;;;;;;2.97;2.08;;;32.90;58.80;;;;;;5090445;28;20251;-56
2023/07/06 05:59:29;;;;;;;4.35;2.03;;;33.50;57.60;;;;;;5090960;28;20311;-56
2023/07/06 06:01:56;;;;;;;2.90;1.90;;;34.30;55.90;;;;;;5090765;28;20214;-57
2023/07/06 06:04:25;;;;;;;4.30;2.00;;;35.00;53.70;;;;;;5090690;28;20200;-55
2023/07/06 06:06:56;;;;;;;2.53;2.10;;;35.40;52.30;;;;;;5090471;28;20219;-57
2023/07/06 06:09:26;;;;;;;4.70;2.38;;;35.30;51.80;;;;;;5090686;28;20224;-58
2023/07/06 06:11:54;;;;;;;5.28;3.30;;;34.50;52.70;;;;;;5091871;28;20579;-57
2023/07/06 06:14:21;;;;;;;3.72;2.00;;;34.40;53.70;;;;;;5088763;28;20265;-58
2023/07/06 06:16:48;;;;;;;4.72;2.13;;;35.10;52.40;;;;;;5092614;28;20303;-58
2023/07/06 06:19:16;;;;;;;3.47;2.08;;;36.20;50.50;;;;;;5093751;28;20240;-58
2023/07/06 06:21:45;;;;;;;2.97;1.85;;;37.20;49.10;;;;;;5094364;28;20214;-57
2023/07/06 06:24:12;;;;;;;4.75;2.25;;;38.10;47.90;;;;;;5094577;28;20543;-58
2023/07/06 06:26:42;;;;;;;2.75;1.67;;;38.90;46.70;;;;;;5094194;28;20230;-56
2023/07/06 06:29:10;;;;;;;2.67;1.83;;;39.50;44.50;;;;;;5094275;28;20208;-62
2023/07/06 06:31:37;;;;;;;3.60;2.53;;;39.80;43.70;;;;;;5094095;28;20436;-58
2023/07/06 06:34:04;;;;;;;2.83;1.80;;;40.10;42.50;;;;;;5094857;28;20224;-57
2023/07/06 06:36:31;;;;;;;2.17;1.45;;;40.80;40.70;;;;;;5094187;28;20204;-58
2023/07/06 06:38:59;;;;;;;3.95;1.60;;;40.90;39.60;;;;;;5094226;28;20210;-57
2023/07/06 06:41:26;;;;;;;3.05;2.00;;;41.20;38.80;;;;;;5094540;28;20203;-57
2023/07/06 06:43:52;;;;;;;2.47;1.40;;;41.70;38.00;;;;;;5094335;28;20740;-59
2023/07/06 06:46:19;;;;;;;2.88;1.80;;;42.40;36.40;;;;;;5094431;28;20695;-57
2023/07/06 06:48:46;;;;;;;3.92;1.60;;;41.90;36.90;;;;;;5094644;28;20207;-57
2023/07/06 06:51:13;;;;;;;3.13;1.80;;;41.90;37.20;;;;;;5094297;28;20598;-57
2023/07/06 06:53:40;;;;;;;3.92;2.17;;;42.40;36.40;;;;;;5094680;28;20268;-58
2023/07/06 06:56:09;;;;;;;4.47;1.70;;;42.60;36.10;;;;;;5094076;28;20199;-60
2023/07/06 06:58:37;;;;;;;2.10;1.65;;;43.10;36.10;;;;;;5094258;28;20277;-58
2023/07/06 07:01:05;;;;;;;4.43;2.15;;;44.00;34.90;;;;;;5094208;28;20227;-59
2023/07/06 07:03:34;;;;;;;3.45;1.77;;;43.10;35.60;;;;;;5094210;28;20202;-57
2023/07/06 07:06:03;;;;;;;5.65;1.48;;;42.80;35.90;;;;;;5093847;28;20260;-63
2023/07/06 07:08:30;;;;;;;2.00;1.45;;;43.20;35.00;;;;;;5094324;28;20551;-59
2023/07/06 07:10:58;;;;;;;2.08;1.60;;;43.00;36.00;;;;;;5093690;28;20224;-62
2023/07/06 07:13:27;;;;;;;3.03;1.50;;;43.40;35.30;;;;;;5093588;28;20575;-58
2023/07/06 07:15:55;;;;;;;3.33;1.52;;;43.90;34.60;;;;;;5093574;28;20207;-59
2023/07/06 07:18:22;;;;;;;2.70;1.65;;;43.90;34.10;;;;;;5093975;28;20295;-59
2023/07/06 07:20:51;;;;;;;3.38;1.60;;;43.80;34.00;;;;;;5094140;28;20661;-61
2023/07/06 07:23:18;;;;;;;5.45;1.92;;;44.40;33.70;;;;;;5092700;28;20659;-60
2023/07/06 07:25:44;;;;;;;4.07;2.22;;;45.00;33.10;;;;;;5093657;28;20211;-61
2023/07/06 07:28:11;;;;;;;7.63;2.50;;;45.90;32.40;;;;;;5093399;28;20679;-61
2023/07/06 07:30:40;;;;;;;4.90;2.13;;;46.60;31.60;;;;;;5093779;28;20228;-60
2023/07/06 07:33:07;;;;;;;4.22;1.70;;;47.20;30.80;;;;;;5093606;28;20207;-61
2023/07/06 07:35:33;;;;;;;2.92;1.60;;;47.30;30.00;;;;;;5093972;28;20550;-61
2023/07/06 07:38:01;;;;;;;4.35;1.65;;;46.80;30.00;;;;;;5093052;28;20203;-62
2023/07/06 07:40:28;;;;;;;2.67;1.77;;;46.20;30.60;;;;;;5093164;28;20398;-62
2023/07/06 07:42:54;;;;;;;3.78;2.78;;;46.20;30.30;;;;;;5093264;28;20203;-61
2023/07/06 07:45:21;;;;;;;5.38;4.57;;;46.50;30.10;;;;;;5093414;28;20200;-62
2023/07/06 07:47:49;;;;;;;2.05;1.40;;;46.50;29.80;;;;;;5092866;28;20211;-62
2023/07/06 07:50:17;;;;;;;2.05;1.70;;;46.70;29.60;;;;;;5093010;28;20223;-62
2023/07/06 07:52:44;;;;;;;4.00;2.97;;;47.10;29.50;;;;;;5093184;28;20199;-62
2023/07/06 07:55:10;;;;;;;2.55;1.40;;;47.00;29.40;;;;;;5093050;28;20277;-62
2023/07/06 07:57:37;;;;;;;2.45;1.52;;;46.10;29.70;;;;;;5092924;28;20211;-62
2023/07/06 08:00:09;;;;;;;3.28;1.63;;;45.60;29.90;;;;;;5092897;28;20258;-62
2023/07/06 08:02:36;;;;;;;4.60;1.95;;;45.60;29.70;;;;;;5092836;28;20204;-62
2023/07/06 08:05:09;;;;;;;4.60;1.67;;;45.80;29.60;;;;;;5092755;28;20212;-62
2023/07/06 08:07:36;;;;;;;2.88;1.45;;;45.40;29.70;;;;;;5092815;28;20215;-62
2023/07/06 08:10:02;;;;;;;3.00;1.40;;;44.30;29.90;;;;;;5093235;28;20231;-62
2023/07/06 08:12:32;;;;;;;2.85;1.40;;;42.30;30.80;;;;;;5092643;28;20220;-62
2023/07/06 08:14:58;;;;;;;2.10;1.30;;;41.30;31.60;;;;;;5092798;28;20314;-61
2023/07/06 08:17:26;;;;;;;4.70;1.50;;;40.50;32.60;;;;;;5092774;28;20660;-61
2023/07/06 08:19:53;;;;;;;4.43;2.10;;;41.00;31.90;;;;;;5092235;28;20715;-62
2023/07/06 08:22:22;;;;;;;3.05;1.60;;;41.00;32.00;;;;;;5092335;28;20742;-62
2023/07/06 08:24:49;;;;;;;3.83;1.50;;;41.70;31.60;;;;;;5092516;28;20203;-61
2023/07/06 08:27:16;;;;;;;2.85;1.52;;;42.00;31.10;;;;;;5092111;28;20646;-62
2023/07/06 08:29:44;;;;;;;3.22;1.48;;;42.00;31.80;;;;;;5092248;28;20231;-62
2023/07/06 08:32:14;;;;;;;3.60;1.60;;;42.60;30.80;;;;;;5092204;28;20215;-62
2023/07/06 08:34:41;;;;;;;2.85;1.30;;;42.80;31.00;;;;;;5092428;28;20296;-62
2023/07/06 08:37:08;;;;;;;3.75;1.70;;;43.10;30.30;;;;;;5091883;28;20212;-62
2023/07/06 08:39:36;;;;;;;1.60;1.40;;;43.00;30.50;;;;;;5092212;28;20604;-61
2023/07/06 08:42:03;;;;;;;5.13;1.42;;;42.60;31.10;;;;;;5092086;28;20203;-61
2023/07/06 08:44:29;;;;;;;5.82;1.60;;;42.60;31.10;;;;;;5092018;28;20211;-60
2023/07/06 08:46:56;;;;;;;2.38;1.60;;;42.40;30.70;;;;;;5091909;28;20211;-61
2023/07/06 08:49:28;;;;;;;3.47;1.70;;;41.70;31.80;;;;;;5092092;28;20246;-61
2023/07/06 08:51:55;;;;;;;3.03;1.80;;;40.90;32.40;;;;;;5092117;28;20209;-61
2023/07/06 08:54:23;;;;;;;3.83;1.85;;;39.50;33.80;;;;;;5092451;28;20216;-61
2023/07/06 08:56:51;;;;;;;3.17;1.70;;;38.30;35.30;;;;;;5091568;28;20204;-60
2023/07/06 08:59:32;;;;;;;2.47;1.70;;;36.70;36.20;;;;;;5091630;28;20631;-60
2023/07/06 09:01:58;;;;;;;5.63;1.63;;;34.80;38.90;;;;;;5091887;28;20208;-61
2023/07/06 09:04:27;;;;;;;3.30;1.70;;;33.10;40.70;;;;;;5091825;28;20200;-61
2023/07/06 09:06:57;;;;;;;3.17;1.73;;;31.40;42.80;;;;;;5091572;28;20211;-61
2023/07/06 09:09:24;;;;;;;4.93;1.60;;;30.00;44.40;;;;;;5091745;28;20220;-61
2023/07/06 09:11:52;;;;;;;5.32;1.90;;;29.00;46.20;;;;;;5091822;28;20299;-61
2023/07/06 09:14:24;;;;;;;5.05;2.00;;;28.20;48.70;;;;;;5091651;28;20228;-61
2023/07/06 09:16:55;;;;;;;6.57;1.95;;;27.80;48.40;;;;;;5091408;28;20671;-60
2023/07/06 09:19:23;;;;;;;3.85;1.83;;;27.40;50.00;;;;;;5091398;28;20627;-61
2023/07/06 09:21:54;;;;;;;4.53;2.38;;;27.00;50.00;;;;;;5091668;28;20207;-61
2023/07/06 09:24:27;;;;;;;3.00;1.70;;;26.90;49.80;;;;;;5091392;28;20214;-60
2023/07/06 09:26:58;;;;;;;4.43;1.90;;;26.90;50.90;;;;;;5091526;28;20306;-61
2023/07/06 09:29:31;;;;;;;4.85;1.88;;;27.00;50.20;;;;;;5091582;28;20648;-61
2023/07/06 09:32:10;;;;;;;3.20;2.00;;;27.00;50.00;;;;;;5091687;28;20261;-61
2023/07/06 09:34:37;;;;;;;3.47;1.75;;;27.20;49.50;;;;;;5091276;28;20319;-62
2023/07/06 09:37:04;;;;;;;3.42;2.22;;;27.20;49.60;;;;;;5090994;28;20663;-62
2023/07/06 09:39:30;;;;;;;3.78;1.80;;;27.20;50.00;;;;;;5091600;28;20244;-62
2023/07/06 09:42:01;;;;;;;3.25;1.90;;;27.10;49.70;;;;;;5091643;28;20273;-61
2023/07/06 09:44:30;;;;;;;2.90;2.13;;;27.00;49.60;;;;;;5091455;28;20302;-61
2023/07/06 09:46:58;;;;;;;2.17;1.77;;;27.00;49.80;;;;;;5093055;28;20690;-62
2023/07/06 09:49:30;;;;;;;2.90;1.70;;;27.10;49.70;;;;;;5095359;28;20224;-61
2023/07/06 09:52:01;;;;;;;2.20;1.80;;;27.30;49.20;;;;;;5095610;28;20209;-61
2023/07/06 09:54:32;;;;;;;4.72;2.10;;;27.40;49.00;;;;;;5095377;28;20224;-61
2023/07/06 09:57:09;;;;;;;2.47;1.67;;;27.30;49.60;;;;;;5095135;28;20304;-60
2023/07/06 09:59:36;;;;;;;2.20;1.58;;;27.00;49.50;;;;;;5095244;28;20292;-60
2023/07/06 10:02:16;;;;;;;2.25;1.80;;;26.90;49.20;;;;;;5095317;28;20204;-60
2023/07/06 10:04:52;;;;;;;1.88;1.60;;;26.90;46.90;;;;;;5095367;28;20200;-63
2023/07/06 10:07:27;;;;;;;2.80;2.10;;;27.10;45.80;;;;;;5095014;28;20280;-60
2023/07/06 10:10:03;;;;;;;3.42;1.80;;;27.40;46.20;;;;;;5094971;28;20232;-59
2023/07/06 10:12:39;;;;;;;2.42;1.75;;;27.50;46.10;;;;;;5095094;28;20204;-58
2023/07/06 10:15:14;;;;;;;2.45;1.75;;;27.70;46.90;;;;;;5094976;28;20310;-57
2023/07/06 10:17:46;;;;;;;2.75;2.03;;;27.60;47.30;;;;;;5094566;28;20203;-58
2023/07/06 10:20:17;;;;;;;2.65;1.75;;;27.40;47.10;;;;;;5094830;28;20232;-58
2023/07/06 10:23:06;;;;;;;2.45;1.90;;;27.20;48.00;;;;;;5095156;28;20265;-60
2023/07/06 10:25:36;;;;;;;5.95;2.10;;;27.20;48.00;;;;;;5095026;28;20208;-59
2023/07/06 10:28:11;;;;;;;2.65;1.90;;;27.10;47.90;;;;;;5094505;28;20204;-59
2023/07/06 10:30:45;;;;;;;4.60;2.17;;;27.30;48.10;;;;;;5094371;28;20284;-59
2023/07/06 10:33:17;;;;;;;3.13;2.00;;;27.50;47.50;;;;;;5094442;28;20204;-59
2023/07/06 10:35:48;;;;;;;2.85;2.22;;;27.90;46.50;;;;;;5094555;28;20601;-58
2023/07/06 10:38:16;;;;;;;2.90;2.00;;;28.10;46.70;;;;;;5094527;28;20204;-59
2023/07/06 10:40:49;;;;;;;6.13;1.98;;;28.40;46.00;;;;;;5094281;28;20228;-57
2023/07/06 10:43:23;;;;;;;3.88;1.73;;;28.80;45.20;;;;;;5094444;28;20270;-56
2023/07/06 10:45:51;;;;;;;1.90;1.75;;;29.00;44.80;;;;;;5094372;28;20209;-56
2023/07/06 10:48:28;;;;;;;3.85;2.10;;;29.20;44.90;;;;;;5094320;28;20257;-57
2023/07/06 10:51:16;;;;;;;3.45;2.00;;;29.40;44.40;;;;;;5094401;28;20312;-57
2023/07/06 10:53:45;;;;;;;2.33;1.90;;;29.50;44.30;;;;;;5094883;28;20200;-61
2023/07/06 10:56:20;;;;;;;4.88;2.25;;;29.30;44.80;;;;;;5094270;28;20224;-58
2023/07/06 10:58:54;;;;;;;6.45;4.38;;;29.10;45.20;;;;;;5093174;28;20211;-58
2023/07/06 11:01:24;;;;;;;2.45;1.83;;;29.10;45.40;;;;;;5094234;28;20601;-59
2023/07/06 11:03:51;;;;;;;3.20;1.80;;;28.90;45.70;;;;;;5094629;28;20262;-59
2023/07/06 11:06:41;;;;;;;3.05;1.70;;;28.80;46.20;;;;;;5093891;28;20624;-59
2023/07/06 11:09:16;;;;;;;5.05;2.00;;;28.60;46.50;;;;;;5093984;28;20200;-59
2023/07/06 11:11:59;;;;;;;4.28;2.10;;;28.10;47.00;;;;;;5094135;28;20211;-59
2023/07/06 11:14:38;;;;;;;3.38;2.00;;;27.70;47.90;;;;;;5093780;28;20223;-59
2023/07/06 11:17:15;;;;;;;3.60;1.98;;;27.50;47.50;;;;;;5093634;28;20765;-63
2023/07/06 11:19:48;;;;;;;3.53;2.28;;;27.40;48.20;;;;;;5094086;28;20235;-58
2023/07/06 11:22:19;;;;;;;2.35;1.73;;;27.60;48.20;;;;;;5094041;28;20291;-59
2023/07/06 11:24:49;;;;;;;2.95;1.75;;;27.70;47.10;;;;;;5093795;28;20269;-59
2023/07/06 11:27:24;;;;;;;3.17;2.10;;;27.70;46.80;;;;;;5093818;28;20216;-61
2023/07/06 11:29:54;;;;;;;3.33;2.05;;;27.50;47.40;;;;;;5093954;28;20276;-57
2023/07/06 11:32:29;;;;;;;3.63;2.33;;;27.40;47.90;;;;;;5093975;28;20465;-59
2023/07/06 11:35:17;;;;;;;6.53;1.98;;;27.30;48.10;;;;;;5093589;28;20220;-57
2023/07/06 11:37:54;;;;;;;6.13;1.90;;;27.50;47.70;;;;;;5093551;28;20184;-56
2023/07/06 11:40:38;;;;;;;3.15;2.20;;;27.60;47.20;;;;;;5093577;28;20235;-56
2023/07/06 11:43:20;;;;;;;3.13;2.20;;;27.80;47.50;;;;;;5093327;28;20295;-56
2023/07/06 11:46:00;;;;;;;3.60;2.08;;;28.10;47.10;;;;;;5093081;28;20204;-62
2023/07/06 11:48:34;;;;;;;3.72;2.33;;;28.30;46.60;;;;;;5093453;28;20200;-55
2023/07/06 11:51:03;;;;;;;3.45;2.10;;;28.30;46.40;;;;;;5093447;28;20314;-58
2023/07/06 11:53:42;;;;;;;2.92;1.90;;;28.20;46.70;;;;;;5093644;28;20200;-55
2023/07/06 11:56:32;;;;;;;5.00;2.30;;;28.10;46.90;;;;;;5092862;28;20770;-56
2023/07/06 11:59:01;;;;;;;6.07;2.20;;;28.20;46.90;;;;;;5093388;28;20208;-57
2023/07/06 12:01:40;;;;;;;4.22;1.92;;;28.10;47.30;;;;;;5093257;28;20204;-58
2023/07/06 12:04:12;;;;;;;4.15;2.00;;;28.00;47.40;;;;;;5093630;28;20258;-59
2023/07/06 12:06:39;;;;;;;3.45;2.10;;;28.00;47.70;;;;;;5092927;28;20227;-61
2023/07/06 12:09:07;;;;;;;3.83;2.20;;;28.00;47.20;;;;;;5088839;28;20944;-58
2023/07/06 12:11:37;;;;;;;3.33;2.13;;;27.90;47.30;;;;;;5092953;28;20227;-63
2023/07/06 12:14:06;;;;;;;3.00;2.00;;;27.70;48.10;;;;;;5093612;28;20231;-57
2023/07/06 12:16:39;;;;;;;3.83;2.08;;;27.60;48.20;;;;;;5092564;28;20231;-58
2023/07/06 12:19:09;;;;;;;3.00;2.13;;;27.60;48.30;;;;;;5092539;28;20295;-59
2023/07/06 12:21:40;;;;;;;2.80;2.35;;;27.50;48.20;;;;;;5093485;28;20694;-57
2023/07/06 12:24:12;;;;;;;2.80;1.95;;;27.80;47.90;;;;;;5092822;28;20204;-58
2023/07/06 12:26:43;;;;;;;5.20;2.13;;;28.30;47.40;;;;;;5092973;28;20205;-59
2023/07/06 12:29:10;;;;;;;2.50;1.70;;;28.60;46.70;;;;;;5093136;28;20272;-59
2023/07/06 12:31:40;;;;;;;4.75;1.77;;;28.30;47.50;;;;;;5092863;28;20230;-62
2023/07/06 12:34:08;;;;;;;2.30;1.75;;;28.20;47.30;;;;;;5093218;28;20208;-59
2023/07/06 12:36:38;;;;;;;3.70;2.05;;;28.40;47.20;;;;;;5092588;28;20224;-60
2023/07/06 12:39:05;;;;;;;5.85;2.05;;;28.60;46.50;;;;;;5092729;28;20299;-60
2023/07/06 12:41:34;;;;;;;4.00;1.88;;;28.70;46.30;;;;;;5093241;28;20652;-59
2023/07/06 12:44:01;;;;;;;3.00;1.92;;;28.80;46.20;;;;;;5092796;28;20226;-59
2023/07/06 12:46:32;;;;;;;5.78;2.15;;;28.90;46.00;;;;;;5092793;28;20207;-59
2023/07/06 12:49:05;;;;;;;2.53;2.22;;;28.90;46.40;;;;;;5093193;28;20207;-60
2023/07/06 12:51:33;;;;;;;2.78;1.90;;;29.00;46.70;;;;;;5092781;28;20219;-61
2023/07/06 12:54:02;;;;;;;3.70;2.20;;;28.80;46.20;;;;;;5092825;28;20208;-59
2023/07/06 12:56:31;;;;;;;5.05;2.00;;;28.50;46.80;;;;;;5092300;28;20235;-58
2023/07/06 12:59:01;;;;;;;5.80;2.13;;;28.30;46.80;;;;;;5092564;28;20300;-59
2023/07/06 13:01:31;;;;;;;5.15;2.08;;;28.00;46.50;;;;;;5092559;28;20299;-59